createdAt,value
2019-01-16T00:02:52.640Z,8.93
2019-01-16T00:08:55.915Z,15.77
2019-01-16T00:12:00.073Z,14.73
2019-01-16T00:15:02.587Z,9.43
2019-01-16T00:18:16.864Z,12.97
2019-01-16T00:21:50.363Z,14.07
2019-01-16T00:24:54.891Z,14.33
2019-01-16T00:27:56.752Z,16.10
2019-01-16T00:31:01.213Z,16.47
2019-01-16T00:33:54.045Z,29.40
2019-01-16T00:36:56.056Z,16.00
2019-01-16T00:39:57.529Z,17.33
2019-01-16T00:42:59.787Z,14.17
2019-01-16T00:46:01.670Z,14.57
2019-01-16T00:49:03.509Z,16.20
2019-01-16T00:52:00.635Z,15.97
2019-01-16T00:55:03.065Z,16.27
2019-01-16T00:57:56.036Z,18.20
2019-01-16T01:01:01.534Z,19.67
2019-01-16T01:04:15.677Z,20.20
2019-01-16T01:07:16.955Z,17.00
2019-01-16T01:10:19.361Z,15.47
2019-01-16T01:13:13.646Z,13.83
2019-01-16T01:16:10.098Z,14.50
2019-01-16T01:19:02.862Z,15.97
2019-01-16T01:22:05.036Z,19.03
2019-01-16T01:25:07.357Z,16.90
2019-01-16T01:27:57.151Z,13.00
2019-01-16T01:30:59.560Z,15.20
2019-01-16T01:34:06.978Z,16.70
2019-01-16T01:37:08.810Z,13.53
2019-01-16T01:40:06.706Z,11.93
2019-01-16T01:43:09.262Z,16.27
2019-01-16T01:46:12.941Z,15.03
2019-01-16T01:49:12.745Z,18.23
2019-01-16T02:11:20.922Z,24.23
2019-01-16T02:14:28.044Z,23.03
2019-01-16T02:17:30.532Z,19.83
2019-01-16T02:20:35.094Z,27.07
2019-01-16T02:23:36.064Z,26.87
2019-01-16T02:26:38.338Z,30.30
2019-01-16T02:29:40.449Z,31.70
2019-01-16T02:32:44.645Z,35.63
2019-01-16T02:35:40.086Z,28.27
2019-01-16T02:38:41.694Z,29.27
2019-01-16T02:41:43.795Z,32.53
2019-01-16T02:44:37.512Z,34.67
2019-01-16T02:47:33.521Z,28.23
2019-01-16T02:50:25.328Z,41.90
2019-01-16T02:53:26.926Z,34.47
2019-01-16T02:56:28.447Z,33.13
2019-01-16T02:59:19.166Z,29.73
2019-01-16T03:02:21.184Z,29.03
2019-01-16T03:05:22.814Z,29.57
2019-01-16T03:08:12.859Z,26.10
2019-01-16T03:11:31.148Z,26.83
2019-01-16T03:14:33.241Z,31.33
2019-01-16T03:17:37.381Z,31.40
2019-01-16T03:20:39.654Z,27.03
2019-01-16T03:23:40.311Z,31.40
2019-01-16T03:26:42.508Z,31.60
2019-01-16T03:29:47.432Z,40.60
2019-01-16T03:32:48.788Z,41.40
2019-01-16T03:36:02.705Z,41.80
2019-01-16T03:39:10.834Z,51.60
2019-01-16T03:42:05.303Z,34.80
2019-01-16T03:45:07.015Z,48.50
2019-01-16T03:48:08.979Z,38.13
2019-01-16T03:51:01.878Z,48.53
2019-01-16T03:53:54.628Z,50.23
2019-01-16T03:56:56.488Z,48.27
2019-01-16T03:59:48.962Z,49.10
2019-01-16T04:02:56.246Z,45.00
2019-01-16T04:05:58.300Z,48.90
2019-01-16T04:08:59.762Z,31.60
2019-01-16T04:12:01.258Z,50.50
2019-01-16T04:15:02.764Z,52.60
2019-01-16T04:18:10.206Z,54.23
2019-01-16T04:21:12.563Z,45.83
2019-01-16T04:24:16.302Z,54.00
2019-01-16T04:30:42.144Z,57.40
2019-01-16T04:33:44.544Z,56.07
2019-01-16T04:36:47.081Z,63.23
2019-01-16T04:39:42.910Z,56.87
2019-01-16T04:42:33.447Z,49.53
2019-01-16T04:45:25.219Z,31.17
2019-01-16T04:48:27.818Z,49.53
2019-01-16T04:51:28.920Z,45.97
2019-01-16T04:54:21.097Z,46.67
2019-01-16T04:57:22.574Z,51.30
2019-01-16T05:00:12.742Z,40.20
2019-01-16T05:03:20.249Z,47.50
2019-01-16T05:06:21.725Z,46.03
2019-01-16T05:09:23.792Z,51.67
2019-01-16T05:12:26.078Z,40.30
2019-01-16T05:15:20.157Z,51.40
2019-01-16T05:18:21.967Z,44.87
2019-01-16T05:21:29.507Z,58.40
2019-01-16T05:24:31.832Z,56.03
2019-01-16T05:27:33.892Z,47.20
2019-01-16T05:30:35.350Z,66.00
2019-01-16T05:33:25.161Z,35.57
2019-01-16T05:36:26.860Z,71.63
2019-01-16T05:39:29.051Z,68.47
2019-01-16T05:42:36.364Z,71.17
2019-01-16T05:45:38.685Z,67.13
2019-01-16T05:48:41.038Z,66.03
2019-01-16T05:51:43.119Z,69.77
2019-01-16T05:54:44.679Z,67.00
2019-01-16T05:57:34.372Z,66.87
2019-01-16T06:00:42.285Z,52.27
2019-01-16T06:03:46.302Z,69.73
2019-01-16T06:09:47.504Z,57.93
2019-01-16T06:12:49.201Z,50.87
2019-01-16T06:15:43.428Z,50.53
2019-01-16T06:18:46.855Z,50.90
2019-01-16T06:21:49.393Z,55.10
2019-01-16T06:24:51.828Z,50.17
2019-01-16T06:27:54.304Z,52.03
2019-01-16T06:30:55.808Z,46.00
2019-01-16T06:33:57.688Z,55.50
2019-01-16T06:37:00.204Z,46.70
2019-01-16T06:40:04.720Z,45.07
2019-01-16T06:43:09.099Z,41.83
2019-01-16T06:46:01.464Z,48.60
2019-01-16T06:49:11.595Z,52.50
2019-01-16T06:52:14.090Z,46.43
2019-01-16T06:55:18.879Z,61.70
2019-01-16T06:58:23.038Z,59.10
2019-01-16T07:01:30.541Z,64.23
2019-01-16T07:04:25.790Z,61.57
2019-01-16T07:07:22.467Z,57.03
2019-01-16T07:10:19.067Z,50.87
2019-01-16T07:13:20.950Z,65.27
2019-01-16T07:16:28.029Z,63.33
2019-01-16T07:19:22.468Z,54.57
2019-01-16T07:22:23.966Z,54.80
2019-01-16T07:25:25.739Z,49.27
2019-01-16T07:28:28.333Z,53.20
2019-01-16T07:31:23.281Z,40.50
2019-01-16T07:34:25.114Z,37.50
2019-01-16T07:37:27.796Z,53.47
2019-01-16T07:40:19.966Z,51.83
2019-01-16T07:43:25.068Z,42.03
2019-01-16T07:46:17.359Z,44.03
2019-01-16T07:49:24.371Z,51.67
2019-01-16T07:52:32.023Z,43.40
2019-01-16T07:55:36.277Z,45.73
2019-01-16T07:58:40.973Z,37.17
2019-01-16T08:01:42.500Z,34.30
2019-01-16T08:04:44.027Z,33.87
2019-01-16T08:07:51.013Z,36.97
2019-01-16T08:10:43.175Z,22.07
2019-01-16T08:13:50.024Z,30.87
2019-01-16T08:16:43.839Z,36.17
2019-01-16T08:19:45.907Z,32.60
2019-01-16T08:22:48.041Z,31.07
2019-01-16T08:25:55.158Z,33.07
2019-01-16T08:28:56.099Z,32.17
2019-01-16T08:31:53.285Z,30.10
2019-01-16T08:34:55.205Z,27.10
2019-01-16T08:37:57.433Z,34.00
2019-01-16T08:40:59.638Z,31.23
2019-01-16T08:43:57.161Z,29.70
2019-01-16T08:47:01.551Z,31.57
2019-01-16T08:49:56.691Z,30.97
2019-01-16T08:52:58.727Z,39.37
2019-01-16T08:56:01.819Z,30.27
2019-01-16T08:59:03.410Z,30.40
2019-01-16T09:02:05.323Z,40.30
2019-01-16T09:05:06.432Z,29.37
2019-01-16T09:08:08.271Z,36.17
2019-01-16T09:11:09.712Z,24.83
2019-01-16T09:14:17.718Z,29.80
2019-01-16T09:17:19.378Z,25.50
2019-01-16T09:20:20.394Z,27.13
2019-01-16T09:23:22.244Z,23.67
2019-01-16T09:26:24.353Z,25.00
2019-01-16T09:29:25.716Z,27.53
2019-01-16T09:32:33.027Z,24.90
2019-01-16T09:35:36.941Z,14.80
2019-01-16T09:38:38.373Z,22.43
2019-01-16T09:41:40.465Z,21.40
2019-01-16T09:44:42.483Z,20.97
2019-01-16T09:47:34.680Z,17.83
2019-01-16T09:50:36.737Z,17.60
2019-01-16T09:53:40.974Z,13.50
2019-01-16T09:56:42.431Z,14.40
2019-01-16T09:59:39.654Z,22.00
2019-01-16T10:02:41.337Z,16.67
2019-01-16T10:05:37.441Z,16.23
2019-01-16T10:08:42.241Z,20.40
2019-01-16T10:11:43.674Z,18.60
2019-01-16T10:14:47.973Z,22.27
2019-01-16T10:17:54.669Z,17.23
2019-01-16T10:21:01.770Z,20.23
2019-01-16T10:24:03.151Z,15.07
2019-01-16T10:27:05.401Z,20.73
2019-01-16T10:29:56.746Z,17.13
2019-01-16T10:32:59.002Z,23.20
2019-01-16T10:36:03.475Z,18.83
2019-01-16T10:42:07.788Z,21.03
2019-01-16T10:44:58.917Z,24.17
2019-01-16T10:47:56.291Z,20.63
2019-01-16T10:51:03.145Z,20.47
2019-01-16T10:54:06.949Z,23.97
2019-01-16T10:57:09.057Z,22.90
2019-01-16T11:00:01.274Z,19.90
2019-01-16T11:03:02.930Z,23.73
2019-01-16T11:05:57.834Z,19.47
2019-01-16T11:08:58.584Z,27.80
2019-01-16T11:11:49.879Z,26.77
2019-01-16T11:14:51.352Z,18.37
2019-01-16T11:17:53.585Z,24.17
2019-01-16T11:20:55.778Z,22.63
2019-01-16T11:23:56.721Z,27.87
2019-01-16T11:26:58.240Z,19.03
2019-01-16T11:30:01.929Z,31.00
2019-01-16T11:33:03.408Z,30.50
2019-01-16T11:36:06.118Z,23.87
2019-01-16T11:39:08.242Z,25.10
2019-01-16T11:42:10.357Z,30.07
2019-01-16T11:45:14.663Z,26.63
2019-01-16T11:48:16.017Z,16.77
2019-01-16T11:51:07.674Z,24.80
2019-01-16T11:54:09.268Z,29.67
2019-01-16T11:57:00.631Z,21.93
2019-01-16T12:00:05.342Z,27.37
2019-01-16T12:02:58.433Z,20.27
2019-01-16T12:06:00.135Z,28.57
2019-01-16T12:09:00.757Z,30.27
2019-01-16T12:11:56.755Z,31.73
2019-01-16T12:14:52.371Z,20.57
2019-01-16T12:17:54.194Z,20.07
2019-01-16T12:20:55.470Z,26.00
2019-01-16T12:26:50.723Z,32.00
2019-01-16T12:29:52.174Z,34.77
2019-01-16T12:32:50.034Z,35.80
2019-01-16T12:35:51.391Z,30.27
2019-01-16T12:38:53.496Z,31.23
2019-01-16T12:41:59.558Z,38.10
2019-01-16T12:44:59.198Z,40.27
2019-01-16T12:48:06.481Z,37.03
2019-01-16T12:51:06.324Z,41.97
2019-01-16T12:54:07.919Z,45.17
2019-01-16T12:57:09.486Z,43.33
2019-01-16T13:00:16.600Z,41.23
2019-01-16T13:03:19.063Z,43.03
2019-01-16T13:06:20.451Z,28.80
2019-01-16T13:09:13.619Z,35.70
2019-01-16T13:12:15.373Z,39.50
2019-01-16T13:15:06.106Z,38.23
2019-01-16T13:18:22.343Z,36.37
2019-01-16T13:21:24.559Z,39.20
2019-01-16T13:24:26.646Z,37.67
2019-01-16T13:27:28.781Z,34.73
2019-01-16T13:30:30.837Z,39.60
2019-01-16T13:33:24.657Z,34.83
2019-01-16T13:36:26.910Z,36.57
2019-01-16T13:39:19.403Z,34.93
2019-01-16T13:42:20.995Z,39.07
2019-01-16T13:45:23.490Z,37.70
2019-01-16T13:48:13.979Z,47.53
2019-01-16T13:51:15.635Z,37.33
2019-01-16T13:54:17.438Z,39.83
2019-01-16T13:57:19.627Z,44.93
2019-01-16T14:00:14.703Z,30.20
2019-01-16T14:03:17.047Z,21.13
2019-01-16T14:06:18.840Z,37.40
2019-01-16T14:09:00.803Z,33.30
2019-01-16T14:11:57.451Z,33.90
2019-01-16T14:18:05.634Z,28.60
2019-01-16T14:21:13.456Z,33.77
2019-01-16T14:24:16.739Z,32.93
2019-01-16T14:27:22.604Z,39.57
2019-01-16T14:30:24.086Z,36.80
2019-01-16T14:36:04.426Z,36.23
2019-01-16T14:39:11.474Z,36.87
2019-01-16T14:42:18.737Z,34.97
2019-01-16T14:45:20.151Z,34.03
2019-01-16T14:48:21.082Z,33.30
2019-01-16T14:51:23.383Z,38.83
2019-01-16T14:54:25.344Z,31.73
2019-01-16T14:57:24.498Z,30.33
2019-01-16T15:00:29.061Z,35.63
2019-01-16T15:03:30.416Z,31.50
2019-01-16T15:06:32.483Z,32.13
2019-01-16T15:09:34.333Z,26.07
2019-01-16T15:12:32.317Z,41.03
2019-01-16T15:15:36.327Z,38.57
2019-01-16T15:18:37.584Z,35.70
2019-01-16T15:21:39.417Z,36.77
2019-01-16T15:24:40.959Z,21.27
2019-01-16T15:27:43.195Z,31.23
2019-01-16T15:30:45.403Z,16.67
2019-01-16T15:33:42.131Z,30.30
2019-01-16T15:36:39.332Z,29.83
2019-01-16T15:39:40.845Z,28.20
2019-01-16T15:42:42.147Z,27.27
2019-01-16T15:45:43.572Z,31.60
2019-01-16T15:48:44.988Z,28.47
2019-01-16T15:51:49.039Z,24.60
2019-01-16T15:54:50.892Z,23.27
2019-01-16T15:57:55.323Z,24.63
2019-01-16T16:00:58.222Z,23.43
2019-01-16T16:04:01.034Z,26.57
2019-01-16T16:07:02.634Z,27.10
2019-01-16T16:10:05.228Z,24.93
2019-01-16T16:13:07.018Z,30.97
2019-01-16T16:16:08.109Z,28.30
2019-01-16T16:19:15.318Z,27.30
2019-01-16T16:22:19.474Z,22.70
2019-01-16T16:25:35.261Z,26.73
2019-01-16T16:28:39.557Z,22.53
2019-01-16T16:31:42.126Z,26.77
2019-01-16T16:34:44.193Z,21.17
2019-01-16T16:37:47.096Z,21.33
2019-01-16T16:43:52.694Z,26.97
2019-01-16T16:46:48.744Z,26.97
2019-01-16T16:49:44.042Z,29.67
2019-01-16T16:52:51.307Z,25.80
2019-01-16T16:58:54.507Z,25.57
2019-01-16T17:01:56.284Z,27.43
2019-01-16T17:04:57.500Z,26.47
2019-01-16T17:07:59.741Z,29.97
2019-01-16T17:11:02.131Z,28.37
2019-01-16T17:14:04.130Z,27.43
2019-01-16T17:17:05.780Z,32.07
2019-01-16T17:20:07.742Z,25.30
2019-01-16T17:23:09.539Z,24.90
2019-01-16T17:26:10.972Z,29.67
2019-01-16T17:29:12.341Z,30.17
2019-01-16T17:32:27.822Z,28.20
2019-01-16T17:35:24.777Z,29.57
2019-01-16T17:38:22.393Z,35.37
2019-01-16T17:41:24.603Z,29.60
2019-01-16T17:44:32.043Z,32.83
2019-01-16T17:47:30.094Z,32.17
2019-01-16T17:50:31.500Z,41.53
2019-01-16T17:53:35.971Z,29.67
2019-01-16T17:56:37.649Z,36.20
2019-01-16T18:02:35.233Z,39.73
2019-01-16T18:05:43.388Z,37.97
2019-01-16T18:08:45.757Z,38.43
2019-01-16T18:11:47.198Z,33.07
2019-01-16T18:14:38.052Z,36.37
2019-01-16T18:17:39.559Z,41.50
2019-01-16T18:20:46.553Z,41.67
2019-01-16T18:23:47.983Z,37.07
2019-01-16T18:26:44.873Z,39.07
2019-01-16T18:29:51.888Z,46.07
2019-01-16T18:32:44.189Z,48.10
2019-01-16T18:38:49.033Z,50.73
2019-01-16T18:41:44.258Z,42.07
2019-01-16T18:44:45.949Z,40.33
2019-01-16T18:47:28.267Z,49.37
2019-01-16T18:50:29.524Z,45.90
2019-01-16T18:53:32.587Z,46.80
2019-01-16T18:56:40.507Z,40.90
2019-01-16T18:59:38.057Z,53.53
2019-01-16T19:02:45.207Z,56.13
2019-01-16T19:05:38.484Z,53.60
2019-01-16T19:08:40.834Z,38.33
2019-01-16T19:11:31.894Z,50.10
2019-01-16T19:14:29.585Z,46.63
2019-01-16T19:17:36.919Z,51.23
2019-01-16T19:20:32.875Z,42.13
2019-01-16T19:23:35.366Z,38.63
2019-01-16T19:26:37.805Z,48.10
2019-01-16T19:29:40.177Z,45.03
2019-01-16T19:32:41.919Z,53.87
2019-01-16T19:35:31.689Z,33.03
2019-01-16T19:38:26.683Z,48.00
2019-01-16T19:41:28.240Z,43.73
2019-01-16T19:47:40.323Z,44.47
2019-01-16T19:50:41.906Z,50.87
2019-01-16T19:53:43.978Z,62.07
2019-01-16T19:56:46.151Z,30.60
2019-01-16T19:59:47.666Z,37.17
2019-01-16T20:02:49.833Z,57.63
2019-01-16T20:05:44.361Z,40.13
2019-01-16T20:08:58.861Z,53.27
2019-01-16T20:11:55.981Z,63.97
2019-01-16T20:14:54.580Z,58.73
2019-01-16T20:17:56.838Z,64.63
2019-01-16T20:20:58.838Z,53.10
2019-01-16T20:23:56.283Z,68.07
2019-01-16T20:26:56.693Z,61.53
2019-01-16T20:30:01.302Z,54.90
2019-01-16T20:33:02.941Z,54.03
2019-01-16T20:36:04.500Z,61.80
2019-01-16T20:39:05.963Z,60.53
2019-01-16T20:45:19.738Z,59.83
2019-01-16T20:48:22.138Z,52.60
2019-01-16T20:51:25.131Z,44.83
2019-01-16T20:54:33.217Z,58.40
2019-01-16T20:57:34.342Z,52.60
2019-01-16T21:00:36.565Z,52.17
2019-01-16T21:03:38.400Z,55.17
2019-01-16T21:06:45.117Z,46.37
2019-01-16T21:09:46.941Z,47.53
2019-01-16T21:12:43.035Z,55.00
2019-01-16T21:15:31.930Z,49.97
2019-01-16T21:18:35.342Z,50.10
2019-01-16T21:21:39.664Z,38.13
2019-01-16T21:24:41.652Z,52.17
2019-01-16T21:27:39.067Z,61.07
2019-01-16T21:30:43.591Z,60.57
2019-01-16T21:33:46.041Z,50.67
2019-01-16T21:36:50.357Z,66.30
2019-01-16T21:39:52.037Z,65.00
2019-01-16T21:42:59.279Z,65.40
2019-01-16T21:46:01.659Z,65.40
2019-01-16T21:49:03.087Z,78.27
2019-01-16T21:52:08.638Z,74.60
2019-01-16T21:55:11.985Z,55.83
2019-01-16T21:58:13.902Z,45.80
2019-01-16T22:01:06.837Z,75.30
2019-01-16T22:04:08.393Z,37.00
2019-01-16T22:07:09.851Z,24.37
2019-01-16T22:10:10.341Z,20.70
2019-01-16T22:13:12.565Z,20.30
2019-01-16T22:16:13.193Z,30.93
2019-01-16T22:19:17.682Z,23.40
2019-01-16T22:22:19.892Z,16.43
2019-01-16T22:25:21.370Z,11.40
2019-01-16T22:28:23.442Z,12.30
2019-01-16T22:31:25.782Z,12.23
2019-01-16T22:34:27.871Z,9.40
2019-01-16T22:37:30.214Z,5.80
2019-01-16T22:40:37.490Z,9.60
2019-01-16T22:43:39.108Z,4.83
2019-01-16T22:46:32.179Z,3.13
2019-01-16T22:49:37.023Z,4.43
2019-01-16T22:52:44.758Z,2.60
2019-01-16T22:55:49.194Z,4.60
2019-01-16T22:58:38.352Z,6.57
2019-01-16T23:01:41.082Z,10.50
2019-01-16T23:04:42.716Z,7.10
2019-01-16T23:07:37.298Z,5.23
2019-01-16T23:10:38.863Z,10.97
2019-01-16T23:13:41.176Z,11.93
2019-01-16T23:16:43.432Z,5.63
2019-01-16T23:19:47.752Z,6.10
2019-01-16T23:22:48.782Z,2.73
2019-01-16T23:25:53.737Z,2.00
2019-01-16T23:28:55.186Z,2.17
2019-01-16T23:34:56.334Z,3.97
2019-01-16T23:37:59.039Z,4.60
2019-01-16T23:41:00.565Z,4.83
2019-01-16T23:44:02.247Z,6.20
2019-01-16T23:46:55.428Z,5.70
2019-01-16T23:49:57.621Z,9.27
2019-01-16T23:52:59.679Z,3.60
2019-01-16T23:56:01.804Z,1.77
2019-01-16T23:59:08.981Z,4.50
